Data for 07/25/2008

Time Sea-Level Adjusted Pressure Absolute Pressure Temperature Relative Humidity Dew Point   
(mb) (inHg) (mb) (inHg) (C) (F) (%) (C) (F)
00:05 1022 30.18 851 25.13 18 64.4 50 7.4 45.4
00:10 1022 30.18 851 25.13 17.9 64.3 51 7.8 46
00:15 1022 30.18 851 25.13 17.8 64.1 51 7.6 45.6
00:20 1022 30.18 851 25.13 17.9 64.1 51 7.7 45.8
00:25 1022 30.18 851 25.13 17.7 63.9 51 7.6 45.6
00:30 1022 30.18 851 25.13 17.7 63.8 51 7.6 45.7
00:35 1022 30.18 851 25.13 17.6 63.7 52 7.6 45.7
00:40 1022 30.18 851 25.13 17.6 63.6 51 7.5 45.5
00:45 1022 30.18 851 25.13 17.5 63.5 51 7.5 45.5
00:50 1022 30.18 851 25.13 17.4 63.4 51 7.2 45
00:55 1022 30.18 851 25.13 17.4 63.4 51 7.3 45.1
01:00 1022 30.18 851 25.13 17.4 63.3 51 7.3 45.2
01:05 1022 30.18 851 25.13 17.3 63.2 51 7.3 45.2
01:10 1022 30.18 852 25.16 17.2 62.9 52 7.4 45.3
01:15 1022 30.18 851 25.13 17 62.6 52 7.3 45.2
01:20 1022 30.18 852 25.16 16.9 62.4 52 7.1 44.9
01:25 1022 30.18 852 25.16 16.9 62.4 52 7.1 44.9
01:30 1022 30.18 852 25.16 16.8 62.2 52 7 44.6
01:35 1022 30.18 852 25.16 16.8 62.3 52 6.9 44.5
01:40 1022 30.18 852 25.16 16.8 62.2 52 6.9 44.4
01:45 1022 30.18 852 25.16 16.7 62 52 6.9 44.5
01:50 1022 30.18 852 25.16 16.6 62 52 6.9 44.4
01:55 1022 30.18 852 25.16 16.6 61.9 52 6.9 44.5
02:00 1022 30.18 852 25.16 16.6 61.9 53 7.2 44.9
02:05 1022 30.18 852 25.16 16.5 61.6 53 7 44.7
02:10 1022 30.18 852 25.16 16.4 61.6 53 7 44.7
02:15 1022 30.18 852 25.16 16.3 61.4 54 7 44.6
02:20 1023 30.21 852 25.16 16.3 61.3 53 6.9 44.3
02:25 1023 30.21 852 25.16 16.3 61.3 54 7 44.5
02:30 1023 30.21 852 25.16 16.2 61.1 54 6.9 44.4
02:35 1023 30.21 852 25.16 16.1 61 54 6.8 44.2
02:40 1023 30.21 852 25.16 16.2 61.1 53 6.7 44
02:45 1023 30.21 852 25.16 16.1 60.9 54 6.8 44.2
02:50 1023 30.21 852 25.16 16 60.7 54 6.7 44
02:55 1023 30.21 852 25.16 15.8 60.5 54 6.7 44.1
03:00 1023 30.21 852 25.16 15.8 60.4 54 6.6 43.9
03:05 1023 30.21 852 25.16 15.8 60.4 54 6.6 44
03:10 1023 30.21 852 25.16 15.7 60.3 55 6.7 44
03:15 1023 30.21 852 25.16 15.7 60.3 54 6.6 43.8
03:20 1023 30.21 852 25.16 15.7 60.3 55 6.7 44
03:25 1023 30.21 852 25.16 15.6 60.1 55 6.7 44
03:30 1023 30.21 852 25.16 15.5 59.9 55 6.6 43.9
03:35 1023 30.21 852 25.16 15.5 59.8 55 6.6 43.9
03:40 1023 30.21 852 25.16 15.4 59.6 56 6.6 43.9
03:45 1023 30.21 852 25.16 15.3 59.6 56 6.6 43.9
03:50 1023 30.21 852 25.16 15.3 59.5 56 6.6 43.9
03:55 1023 30.21 852 25.16 15.2 59.4 56 6.6 43.9
04:00 1023 30.21 852 25.16 15.2 59.3 57 6.7 44
04:05 1023 30.21 852 25.16 15.1 59.1 57 6.6 43.9
04:10 1023 30.21 852 25.16 15.1 59.1 57 6.7 44
04:15 1023 30.21 852 25.16 15 59 57 6.6 43.8
04:20 1023 30.21 852 25.16 15 58.9 58 6.7 44.1
04:25 1023 30.21 852 25.16 14.9 58.7 57 6.6 43.9
04:30 1023 30.21 852 25.16 14.8 58.7 58 6.7 44.1
04:35 1023 30.21 852 25.16 14.8 58.6 58 6.7 44.1
04:40 1023 30.21 852 25.16 14.7 58.4 59 6.8 44.2
04:45 1023 30.21 852 25.16 14.6 58.3 59 6.9 44.4
04:50 1023 30.21 852 25.16 14.5 58.2 59 6.8 44.2
04:55 1023 30.21 852 25.16 14.6 58.2 59 6.7 44.1
05:00 1023 30.21 852 25.16 14.6 58.3 59 6.9 44.4
05:05 1023 30.21 852 25.16 14.6 58.2 60 6.9 44.3
05:10 1023 30.21 852 25.16 14.6 58.2 60 6.9 44.4
05:15 1023 30.21 852 25.16 14.5 58.1 60 6.9 44.4
05:20 1023 30.21 852 25.16 14.5 58.2 60 7 44.6
05:25 1023 30.21 852 25.16 14.5 58.1 61 7 44.7
05:30 1023 30.21 852 25.16 14.5 58.1 61 7.2 44.9
05:35 1023 30.21 852 25.16 14.6 58.2 61 7.3 45.1
05:40 1023 30.21 852 25.16 14.6 58.3 62 7.4 45.4
05:45 1023 30.21 852 25.16 14.6 58.3 62 7.5 45.4
05:50 1023 30.21 852 25.16 14.6 58.2 62 7.5 45.5
05:55 1023 30.21 852 25.16 14.6 58.2 63 7.7 45.8
06:00 1023 30.21 852 25.16 14.6 58.2 63 7.8 46
06:05 1023 30.21 852 25.16 14.6 58.2 64 7.9 46.2
06:10 1023 30.21 852 25.16 14.5 58.1 64 7.9 46.2
06:15 1023 30.21 852 25.16 14.5 58.1 65 8 46.5
06:20 1023 30.21 852 25.16 14.5 58.2 65 8.1 46.5
06:25 1023 30.21 852 25.16 14.6 58.2 65 8.2 46.8
06:30 1023 30.21 852 25.16 14.6 58.3 66 8.3 46.9
06:35 1023 30.21 852 25.16 14.7 58.4 65 8.3 47
06:40 1023 30.21 852 25.16 14.7 58.4 66 8.4 47.1
06:45 1023 30.21 852 25.16 14.7 58.5 66 8.5 47.3
06:50 1023 30.21 852 25.16 14.7 58.5 66 8.5 47.2
06:55 1023 30.21 852 25.16 14.8 58.6 66 8.6 47.6
07:00 1023 30.21 852 25.16 14.8 58.7 66 8.7 47.7
07:05 1023 30.21 852 25.16 14.8 58.7 67 8.8 47.8
07:10 1023 30.21 852 25.16 14.9 58.8 67 8.8 47.9
07:15 1023 30.21 852 25.16 14.9 58.9 67 8.9 48.1
07:20 1023 30.21 852 25.16 15 59 67 8.9 48.1
07:25 1023 30.21 852 25.16 15.2 59.3 66 9 48.3
07:30 1023 30.21 852 25.16 15.2 59.4 66 9 48.3
07:35 1023 30.21 852 25.16 15.3 59.5 66 9.1 48.4
07:40 1023 30.21 852 25.16 15.4 59.6 66 9 48.3
07:45 1023 30.21 852 25.16 15.4 59.8 66 9.1 48.4
07:50 1023 30.21 852 25.16 15.6 60 65 9.1 48.4
07:55 1023 30.21 852 25.16 15.6 60 65 9.1 48.3
08:00 1023 30.21 852 25.16 15.7 60.2 65 9.2 48.5
08:05 1023 30.21 852 25.16 15.8 60.4 65 9.2 48.5
08:10 1023 30.21 852 25.16 15.8 60.5 64 9.2 48.6
08:15 1023 30.21 852 25.16 16 60.9 64 9.3 48.8
08:20 1023 30.21 852 25.16 16.1 60.9 64 9.3 48.7
08:25 1023 30.21 852 25.16 16.4 61.4 63 9.5 49
08:30 1023 30.21 852 25.16 16.5 61.7 63 9.5 49
08:35 1023 30.21 852 25.16 16.6 61.8 63 9.6 49.3
08:40 1023 30.21 852 25.16 16.8 62.2 62 9.5 49.1
08:45 1023 30.21 852 25.16 16.8 62.3 62 9.6 49.2
08:50 1023 30.21 852 25.16 17 62.7 62 9.7 49.5
08:55 1023 30.21 852 25.16 17 62.6 62 9.8 49.6
09:00 1023 30.21 852 25.16 17 62.6 62 9.8 49.7
09:05 1023 30.21 852 25.16 17.2 62.9 61 9.7 49.4
09:10 1023 30.21 852 25.16 17.4 63.2 61 9.9 49.8
09:15 1023 30.21 852 25.16 17.5 63.5 61 10.1 50.2
09:20 1023 30.21 852 25.16 17.7 63.9 61 10.1 50.2
09:25 1023 30.21 852 25.16 17.8 64 61 10.2 50.3
09:30 1023 30.21 852 25.16 18 64.5 60 10.2 50.3
09:35 1023 30.21 852 25.16 18.1 64.6 60 10.3 50.6
09:40 1023 30.21 852 25.16 18 64.4 60 10.3 50.6
09:45 1023 30.21 852 25.16 18.1 64.5 61 10.4 50.8
09:50 1023 30.21 852 25.16 18.3 65 59 10.3 50.6
09:55 1023 30.21 852 25.16 18.6 65.4 59 10.5 50.9
10:00 1023 30.21 852 25.16 18.6 65.4 58 10.2 50.4
10:05 1023 30.21 852 25.16 18.7 65.6 58 10.5 50.9
10:10 1023 30.21 852 25.16 19 66.1 57 10.3 50.6
10:15 1023 30.21 852 25.16 19.1 66.4 57 10.5 50.8
10:20 1023 30.21 852 25.16 19.2 66.6 56 10.3 50.5
10:25 1023 30.21 852 25.16 19.4 66.9 54 10.1 50.2
10:30 1023 30.21 852 25.16 19.7 67.4 54 10.3 50.5
10:35 1023 30.21 852 25.16 19.9 67.7 54 10.5 50.8
10:40 1023 30.21 852 25.16 19.7 67.4 55 10.4 50.8
10:45 1023 30.21 852 25.16 19.8 67.7 54 10.4 50.7
10:50 1022 30.18 852 25.16 20.2 68.3 53 10.3 50.5
10:55 1022 30.18 852 25.16 20.5 68.9 52 10.4 50.6
11:00 1022 30.18 851 25.13 21 69.9 51 10.7 51.2
11:05 1022 30.18 851 25.13 20.9 69.6 50 10.1 50.2
11:10 1022 30.18 851 25.13 20.8 69.4 50 10.1 50.2
11:15 1022 30.18 851 25.13 20.9 69.6 49 9.9 49.9
11:20 1022 30.18 851 25.13 21.1 70 48 10 49.9
11:25 1022 30.18 851 25.13 21.1 70 49 10.2 50.3
11:30 1022 30.18 851 25.13 21.2 70.1 48 10 49.9
11:35 1022 30.18 851 25.13 21.6 70.9 47 10 49.9
11:40 1022 30.18 851 25.13 22.3 72.1 46 10.4 50.6
11:45 1022 30.18 851 25.13 21.9 71.4 48 10.4 50.7
11:50 1022 30.18 851 25.13 21.1 69.9 51 10.5 51
11:55 1022 30.18 851 25.13 21.3 70.3 50 10.5 50.9
12:00 1022 30.18 851 25.13 21.6 70.9 48 10.2 50.3
12:05 1022 30.18 851 25.13 22.1 71.7 49 11 51.8
12:10 1022 30.18 851 25.13 21.7 71 46 9.8 49.7
12:15 1022 30.18 851 25.13 22.7 72.8 45 10.4 50.8
12:20 1022 30.18 851 25.13 23.2 73.8 44 10.4 50.6
12:25 1022 30.18 851 25.13 22.8 73.1 46 10.8 51.4
12:30 1022 30.18 851 25.13 22 71.5 48 10.6 51.1
12:35 1022 30.18 851 25.13 22.5 72.4 46 10.3 50.5
12:40 1022 30.18 851 25.13 22.8 73 45 10.3 50.6
12:45 1022 30.18 851 25.13 22.7 72.9 45 10.2 50.4
12:50 1022 30.18 851 25.13 22.6 72.7 47 10.9 51.6
12:55 1022 30.18 851 25.13 22.6 72.7 44 10 50
13:00 1022 30.18 851 25.13 23.5 74.3 42 10 49.9
13:05 1022 30.18 851 25.13 23.7 74.6 41 9.7 49.5
13:10 1021 30.15 851 25.13 23.9 75 41 9.9 49.8
13:15 1021 30.15 851 25.13 23.9 75 44 11.1 52.1
13:20 1021 30.15 851 25.13 22.9 73.2 45 10.4 50.8
13:25 1021 30.15 850 25.1 23 73.4 42 9.6 49.4
13:30 1021 30.15 850 25.1 24.7 76.5 38 9.7 49.4
13:35 1021 30.15 850 25.1 24.4 76 42 11 51.8
13:40 1021 30.15 850 25.1 24.8 76.6 40 10.4 50.7
13:45 1021 30.15 850 25.1 24.6 76.3 43 11.3 52.3
13:50 1021 30.15 850 25.1 24.7 76.5 40 10.5 50.9
13:55 1021 30.15 850 25.1 24.9 76.8 42 11.5 52.6
14:00 1021 30.15 850 25.1 25 77 42 11.6 52.9
14:05 1021 30.15 850 25.1 25.4 77.6 39 10.7 51.2
14:10 1021 30.15 850 25.1 25.6 78 39 10.7 51.2
14:15 1021 30.15 850 25.1 25.6 78 39 10.9 51.6
14:20 1021 30.15 850 25.1 25.5 77.8 40 11.1 52
14:25 1021 30.15 850 25.1 25.5 78 40 11.3 52.3
14:30 1021 30.15 850 25.1 25.4 77.7 41 11.5 52.8
14:35 1021 30.15 850 25.1 25.7 78.3 38 10.6 51.1
14:40 1020 30.12 850 25.1 26.7 80 38 11.4 52.5
14:45 1020 30.12 850 25.1 27.3 81.1 36 11.2 52.1
14:50 1020 30.12 850 25.1 26.3 79.4 39 11.6 52.8
14:55 1020 30.12 850 25.1 26.5 79.6 38 11.3 52.4
15:00 1020 30.12 850 25.1 27.5 81.5 36 11.2 52.1
15:05 1020 30.12 849 25.07 26.4 79.6 39 11.7 53.1
15:10 1020 30.12 849 25.07 26.6 79.9 38 11.5 52.6
15:15 1020 30.12 849 25.07 26.8 80.2 37 11.1 52
15:20 1020 30.12 849 25.07 26.9 80.4 35 10.5 51
15:25 1020 30.12 849 25.07 27.4 81.2 36 11.4 52.5
15:30 1020 30.12 849 25.07 27.4 81.4 36 11.2 52.1
15:35 1020 30.12 849 25.07 27.8 82 35 11.1 52
15:40 1020 30.12 849 25.07 27.3 81.2 35 10.9 51.7
15:45 1020 30.12 849 25.07 28.2 82.8 32 10.3 50.5
15:50 1020 30.12 849 25.07 28.8 83.8 33 11 51.8
15:55 1020 30.12 849 25.07 28.8 83.8 34 11.5 52.6
16:00 1020 30.12 849 25.07 28.2 82.7 32 10.4 50.8
16:05 1020 30.12 849 25.07 28.3 82.9 31 10 50
16:10 1020 30.12 849 25.07 28.7 83.7 32 10.8 51.5
16:15 1020 30.12 849 25.07 28.2 82.7 32 10.2 50.3
16:20 1020 30.12 849 25.07 28.2 82.7 30 9.4 48.9
16:25 1019 30.09 849 25.07 28.4 83.1 29 9.1 48.4
16:30 1019 30.09 849 25.07 28.7 83.7 28 8.5 47.3
16:35 1019 30.09 849 25.07 29.1 84.4 24 6.9 44.5
16:40 1019 30.09 849 25.07 29.2 84.6 23 6.3 43.3
16:45 1019 30.09 849 25.07 29.1 84.4 25 7.5 45.5
16:50 1019 30.09 849 25.07 28.9 84.1 24 7 44.5
16:55 1019 30.09 848 25.04 29.1 84.3 23 6.2 43.1
17:00 1019 30.09 848 25.04 28.9 84.1 22 5.6 42
17:05 1019 30.09 848 25.04 29.7 85.5 18 2.9 37.2
17:10 1019 30.09 848 25.04 29.2 84.6 20 4.3 39.8
17:15 1019 30.09 848 25.04 29 84.1 19 3.4 38
17:20 1019 30.09 848 25.04 29.1 84.4 19 3.4 38.1
17:25 1019 30.09 848 25.04 29.4 84.9 19 3.5 38.4
17:30 1019 30.09 848 25.04 30.6 87 19 4.9 40.7
17:35 1019 30.09 848 25.04 31.1 88 18 4.3 39.7
17:40 1019 30.09 848 25.04 30.8 87.4 19 4.5 40.1
17:45 1019 30.09 848 25.04 30.5 87 22 6.8 44.2
17:50 1019 30.09 848 25.04 30 86 28 9.7 49.4
17:55 1019 30.09 848 25.04 29.1 84.4 30 10.1 50.3
18:00 1019 30.09 848 25.04 28.9 84 28 9.1 48.4
18:05 1019 30.09 848 25.04 28.4 83.1 29 9.1 48.4
18:10 1019 30.09 848 25.04 28.2 82.8 30 9.4 48.9
18:15 1019 30.09 848 25.04 28.2 82.8 30 9.4 48.9
18:20 1019 30.09 848 25.04 28.1 82.6 30 9.4 48.9
18:25 1019 30.09 848 25.04 28 82.3 30 9 48.3
18:30 1019 30.09 848 25.04 27.7 81.9 30 8.9 48
18:35 1019 30.09 848 25.04 27.8 82.1 30 8.7 47.7
18:40 1019 30.09 848 25.04 27.6 81.7 29 8.5 47.2
18:45 1019 30.09 848 25.04 27.4 81.3 30 8.5 47.2
18:50 1019 30.09 848 25.04 27.3 81.1 30 8.4 47.2
18:55 1019 30.09 848 25.04 27.2 81 29 8.1 46.6
19:00 1018 30.06 848 25.04 27.2 80.9 29 8 46.5
19:05 1018 30.06 848 25.04 27.1 80.8 30 8.2 46.7
19:10 1018 30.06 848 25.04 27 80.5 29 7.5 45.6
19:15 1018 30.06 847 25.01 26.8 80.3 29 7.7 45.9
19:20 1018 30.06 847 25.01 26.6 79.9 29 7.2 45
19:25 1018 30.06 847 25.01 26.5 79.8 28 7 44.6
19:30 1018 30.06 848 25.04 26.5 79.7 29 7.1 44.8
19:35 1018 30.06 848 25.04 26.4 79.6 29 7 44.7
19:40 1019 30.09 848 25.04 26.4 79.4 29 7.2 44.9
19:45 1019 30.09 848 25.04 26.3 79.3 29 7.2 44.9
19:50 1019 30.09 848 25.04 26.2 79.2 29 7.3 45.1
19:55 1018 30.06 848 25.04 26.1 79 30 7.2 45
20:00 1018 30.06 848 25.04 26 78.7 30 7.4 45.3
20:05 1018 30.06 848 25.04 25.8 78.4 30 7.1 44.9
20:10 1018 30.06 847 25.01 25.7 78.3 31 7.5 45.5
20:15 1018 30.06 847 25.01 25.6 78 31 7.6 45.7
20:20 1018 30.06 847 25.01 25.4 77.8 32 7.6 45.6
20:25 1018 30.06 847 25.01 25.3 77.5 32 7.8 46.1
20:30 1018 30.06 847 25.01 25.1 77.1 33 8.1 46.6
20:35 1018 30.06 847 25.01 24.9 76.8 35 8.4 47.2
20:40 1018 30.06 847 25.01 24.6 76.2 36 8.8 47.8
20:45 1018 30.06 847 25.01 24.3 75.8 37 8.8 47.8
20:50 1018 30.06 847 25.01 24.2 75.5 37 8.7 47.7
20:55 1018 30.06 847 25.01 23.9 75.1 38 8.9 48
21:00 1018 30.06 847 25.01 23.8 74.8 37 8.5 47.4
21:05 1018 30.06 847 25.01 24 75.2 36 8.4 47.1
21:10 1018 30.06 847 25.01 24.3 75.8 35 8.3 46.9
21:15 1018 30.06 847 25.01 24.3 75.8 36 8.5 47.3
21:20 1018 30.06 847 25.01 24 75.2 37 8.6 47.5
21:25 1018 30.06 847 25.01 23.9 75.1 37 8.7 47.7
21:30 1018 30.06 847 25.01 23.9 75.1 38 9 48.2
21:35 1018 30.06 847 25.01 23.9 74.9 39 9.4 48.9
21:40 1018 30.06 847 25.01 23.7 74.7 40 9.5 49
21:45 1018 30.06 847 25.01 23.6 74.5 41 9.8 49.6
21:50 1018 30.06 847 25.01 23.6 74.4 41 9.8 49.6
21:55 1018 30.06 847 25.01 23.6 74.4 42 9.9 49.9
22:00 1018 30.06 847 25.01 23.5 74.3 42 9.9 49.8
22:05 1018 30.06 847 25.01 23.4 74.2 42 10 50
22:10 1018 30.06 847 25.01 23.3 73.9 42 10 49.9
22:15 1018 30.06 847 25.01 23.2 73.8 42 9.9 49.8
22:20 1018 30.06 847 25.01 23.2 73.7 42 9.8 49.6
22:25 1018 30.06 847 25.01 23.2 73.7 42 9.8 49.6
22:30 1018 30.06 847 25.01 23.2 73.8 42 9.6 49.4
22:35 1018 30.06 847 25.01 23.3 73.9 41 9.4 48.9
22:40 1018 30.06 847 25.01 23.4 74 41 9.6 49.3
22:45 1018 30.06 847 25.01 23.2 73.7 42 9.6 49.3
22:50 1018 30.06 847 25.01 23.1 73.5 42 9.7 49.4
22:55 1018 30.06 847 25.01 23 73.4 42 9.6 49.3
23:00 1018 30.06 847 25.01 23.1 73.5 42 9.5 49.1
23:05 1018 30.06 847 25.01 23 73.4 42 9.5 49.1
23:10 1018 30.06 847 25.01 22.9 73.3 43 9.8 49.7
23:15 1018 30.06 847 25.01 22.8 73.1 44 9.9 49.9
23:20 1018 30.06 847 25.01 22.7 72.8 44 9.9 49.8
23:25 1018 30.06 847 25.01 22.6 72.7 44 9.8 49.7
23:30 1018 30.06 847 25.01 22.6 72.6 44 9.8 49.6
23:35 1018 30.06 847 25.01 22.5 72.5 44 9.8 49.7
23:40 1018 30.06 847 25.01 22.4 72.3 45 10 49.9
23:45 1018 30.06 847 25.01 22.2 72 46 10.1 50.2
23:50 1018 30.06 847 25.01 22 71.6 46 10.1 50.1
23:55 1018 30.06 847 25.01 21.9 71.5 46 10 50.1
24:00 1017 30.03 847 25.01 21.8 71.2 47 10.2 50.3